sensor_id;sensor_type;location;lat;lon;timestamp;P1;durP1;ratioP1;P2;durP2;ratioP2
72603;SDS011;60645;56.968;24.196;2022-10-16T00:02:25;5.15;;;3.45;;
72603;SDS011;60645;56.968;24.196;2022-10-16T00:04:55;5.75;;;3.60;;
72603;SDS011;60645;56.968;24.196;2022-10-16T00:07:52;4.63;;;3.05;;
72603;SDS011;60645;56.968;24.196;2022-10-16T00:10:48;5.22;;;3.25;;
72603;SDS011;60645;56.968;24.196;2022-10-16T00:13:17;6.00;;;3.03;;
72603;SDS011;60645;56.968;24.196;2022-10-16T00:15:56;5.00;;;3.05;;
72603;SDS011;60645;56.968;24.196;2022-10-16T00:18:27;3.50;;;2.70;;
72603;SDS011;60645;56.968;24.196;2022-10-16T00:21:06;5.82;;;3.35;;
72603;SDS011;60645;56.968;24.196;2022-10-16T00:23:51;5.13;;;3.70;;
72603;SDS011;60645;56.968;24.196;2022-10-16T00:26:32;5.60;;;3.40;;
72603;SDS011;60645;56.968;24.196;2022-10-16T00:29:13;5.47;;;3.53;;
72603;SDS011;60645;56.968;24.196;2022-10-16T00:31:52;4.30;;;2.78;;
72603;SDS011;60645;56.968;24.196;2022-10-16T00:34:20;5.32;;;3.10;;
72603;SDS011;60645;56.968;24.196;2022-10-16T00:37:14;4.72;;;3.70;;
72603;SDS011;60645;56.968;24.196;2022-10-16T00:39:50;4.07;;;2.88;;
72603;SDS011;60645;56.968;24.196;2022-10-16T00:42:27;4.78;;;3.30;;
72603;SDS011;60645;56.968;24.196;2022-10-16T00:45:03;4.40;;;3.70;;
72603;SDS011;60645;56.968;24.196;2022-10-16T00:47:34;4.22;;;3.00;;
72603;SDS011;60645;56.968;24.196;2022-10-16T00:50:16;5.25;;;3.38;;
72603;SDS011;60645;56.968;24.196;2022-10-16T00:52:52;5.28;;;3.13;;
72603;SDS011;60645;56.968;24.196;2022-10-16T00:55:31;4.82;;;3.03;;
72603;SDS011;60645;56.968;24.196;2022-10-16T00:58:18;4.43;;;2.92;;
72603;SDS011;60645;56.968;24.196;2022-10-16T01:00:51;4.95;;;3.15;;
72603;SDS011;60645;56.968;24.196;2022-10-16T01:03:28;4.85;;;3.00;;
72603;SDS011;60645;56.968;24.196;2022-10-16T01:12:03;4.75;;;2.90;;
72603;SDS011;60645;56.968;24.196;2022-10-16T01:17:43;4.38;;;3.08;;
72603;SDS011;60645;56.968;24.196;2022-10-16T01:26:59;4.63;;;2.67;;
72603;SDS011;60645;56.968;24.196;2022-10-16T01:30:05;3.92;;;2.92;;
72603;SDS011;60645;56.968;24.196;2022-10-16T01:33:07;4.80;;;3.05;;
72603;SDS011;60645;56.968;24.196;2022-10-16T01:35:52;4.65;;;3.10;;
72603;SDS011;60645;56.968;24.196;2022-10-16T01:38:53;5.25;;;3.10;;
72603;SDS011;60645;56.968;24.196;2022-10-16T01:41:26;5.10;;;3.50;;
72603;SDS011;60645;56.968;24.196;2022-10-16T01:44:10;5.22;;;3.42;;
72603;SDS011;60645;56.968;24.196;2022-10-16T01:46:51;4.93;;;3.05;;
72603;SDS011;60645;56.968;24.196;2022-10-16T01:49:24;4.63;;;2.42;;
72603;SDS011;60645;56.968;24.196;2022-10-16T01:52:12;5.20;;;3.08;;
72603;SDS011;60645;56.968;24.196;2022-10-16T01:54:52;4.43;;;3.00;;
72603;SDS011;60645;56.968;24.196;2022-10-16T01:57:44;4.55;;;2.88;;
72603;SDS011;60645;56.968;24.196;2022-10-16T02:00:36;4.28;;;2.85;;
72603;SDS011;60645;56.968;24.196;2022-10-16T02:03:21;5.43;;;2.90;;
72603;SDS011;60645;56.968;24.196;2022-10-16T02:05:56;5.13;;;3.17;;
72603;SDS011;60645;56.968;24.196;2022-10-16T02:08:38;4.80;;;3.05;;
72603;SDS011;60645;56.968;24.196;2022-10-16T02:11:13;4.13;;;2.65;;
72603;SDS011;60645;56.968;24.196;2022-10-16T02:14:01;4.93;;;3.53;;
72603;SDS011;60645;56.968;24.196;2022-10-16T02:16:42;4.63;;;2.80;;
72603;SDS011;60645;56.968;24.196;2022-10-16T02:19:23;3.80;;;2.85;;
72603;SDS011;60645;56.968;24.196;2022-10-16T02:21:58;4.20;;;3.00;;
72603;SDS011;60645;56.968;24.196;2022-10-16T02:24:51;5.90;;;3.60;;
72603;SDS011;60645;56.968;24.196;2022-10-16T02:30:34;5.63;;;2.38;;
72603;SDS011;60645;56.968;24.196;2022-10-16T02:33:16;4.63;;;3.13;;
72603;SDS011;60645;56.968;24.196;2022-10-16T02:35:50;3.75;;;2.78;;
72603;SDS011;60645;56.968;24.196;2022-10-16T02:38:27;4.82;;;2.83;;
72603;SDS011;60645;56.968;24.196;2022-10-16T02:41:20;4.10;;;2.65;;
72603;SDS011;60645;56.968;24.196;2022-10-16T02:43:53;3.83;;;2.63;;
72603;SDS011;60645;56.968;24.196;2022-10-16T02:46:36;4.32;;;2.58;;
72603;SDS011;60645;56.968;24.196;2022-10-16T02:49:17;4.68;;;3.03;;
72603;SDS011;60645;56.968;24.196;2022-10-16T02:52:06;6.15;;;2.80;;
72603;SDS011;60645;56.968;24.196;2022-10-16T02:55:01;5.22;;;4.00;;
72603;SDS011;60645;56.968;24.196;2022-10-16T02:57:35;5.05;;;2.88;;
72603;SDS011;60645;56.968;24.196;2022-10-16T03:00:11;4.32;;;3.13;;
72603;SDS011;60645;56.968;24.196;2022-10-16T03:02:43;4.15;;;2.88;;
72603;SDS011;60645;56.968;24.196;2022-10-16T03:05:22;3.80;;;2.78;;
72603;SDS011;60645;56.968;24.196;2022-10-16T03:08:01;5.72;;;3.22;;
72603;SDS011;60645;56.968;24.196;2022-10-16T03:10:51;5.38;;;3.20;;
72603;SDS011;60645;56.968;24.196;2022-10-16T03:13:30;5.72;;;3.80;;
72603;SDS011;60645;56.968;24.196;2022-10-16T03:16:25;4.82;;;2.65;;
72603;SDS011;60645;56.968;24.196;2022-10-16T03:19:18;4.60;;;3.20;;
72603;SDS011;60645;56.968;24.196;2022-10-16T03:21:49;5.13;;;3.28;;
72603;SDS011;60645;56.968;24.196;2022-10-16T03:24:38;5.28;;;3.38;;
72603;SDS011;60645;56.968;24.196;2022-10-16T03:27:14;4.03;;;2.85;;
72603;SDS011;60645;56.968;24.196;2022-10-16T03:29:56;5.30;;;3.08;;
72603;SDS011;60645;56.968;24.196;2022-10-16T03:32:37;6.15;;;2.85;;
72603;SDS011;60645;56.968;24.196;2022-10-16T03:35:11;5.75;;;3.88;;
72603;SDS011;60645;56.968;24.196;2022-10-16T03:38:07;4.30;;;2.80;;
72603;SDS011;60645;56.968;24.196;2022-10-16T03:40:49;4.22;;;2.65;;
72603;SDS011;60645;56.968;24.196;2022-10-16T03:43:25;4.50;;;3.00;;
72603;SDS011;60645;56.968;24.196;2022-10-16T03:45:58;3.75;;;2.42;;
72603;SDS011;60645;56.968;24.196;2022-10-16T03:48:31;4.38;;;3.17;;
72603;SDS011;60645;56.968;24.196;2022-10-16T03:51:26;3.88;;;2.67;;
72603;SDS011;60645;56.968;24.196;2022-10-16T03:53:58;4.65;;;2.72;;
72603;SDS011;60645;56.968;24.196;2022-10-16T03:56:29;5.68;;;3.72;;
72603;SDS011;60645;56.968;24.196;2022-10-16T03:59:09;4.43;;;2.92;;
72603;SDS011;60645;56.968;24.196;2022-10-16T04:01:40;4.78;;;3.05;;
72603;SDS011;60645;56.968;24.196;2022-10-16T04:04:15;5.10;;;3.05;;
72603;SDS011;60645;56.968;24.196;2022-10-16T04:06:45;4.00;;;2.65;;
72603;SDS011;60645;56.968;24.196;2022-10-16T04:09:23;4.53;;;3.05;;
72603;SDS011;60645;56.968;24.196;2022-10-16T04:12:12;3.67;;;2.75;;
72603;SDS011;60645;56.968;24.196;2022-10-16T04:14:59;4.50;;;3.63;;
72603;SDS011;60645;56.968;24.196;2022-10-16T04:17:35;4.05;;;2.65;;
72603;SDS011;60645;56.968;24.196;2022-10-16T04:20:09;4.80;;;3.00;;
72603;SDS011;60645;56.968;24.196;2022-10-16T04:22:41;4.53;;;3.35;;
72603;SDS011;60645;56.968;24.196;2022-10-16T04:25:23;4.45;;;3.03;;
72603;SDS011;60645;56.968;24.196;2022-10-16T04:28:14;4.97;;;2.97;;
72603;SDS011;60645;56.968;24.196;2022-10-16T04:30:51;4.75;;;3.03;;
72603;SDS011;60645;56.968;24.196;2022-10-16T04:33:25;4.45;;;3.35;;
72603;SDS011;60645;56.968;24.196;2022-10-16T04:36:10;4.47;;;2.75;;
72603;SDS011;60645;56.968;24.196;2022-10-16T04:38:41;5.00;;;3.05;;
72603;SDS011;60645;56.968;24.196;2022-10-16T04:41:28;5.38;;;2.85;;
72603;SDS011;60645;56.968;24.196;2022-10-16T04:44:06;6.40;;;3.30;;
72603;SDS011;60645;56.968;24.196;2022-10-16T04:46:44;4.90;;;3.05;;
72603;SDS011;60645;56.968;24.196;2022-10-16T04:49:16;5.30;;;3.00;;
72603;SDS011;60645;56.968;24.196;2022-10-16T04:52:08;6.05;;;3.08;;
72603;SDS011;60645;56.968;24.196;2022-10-16T04:54:46;4.13;;;3.03;;
72603;SDS011;60645;56.968;24.196;2022-10-16T04:57:18;5.05;;;3.45;;
72603;SDS011;60645;56.968;24.196;2022-10-16T04:59:59;4.80;;;3.40;;
72603;SDS011;60645;56.968;24.196;2022-10-16T05:02:45;4.55;;;3.08;;
72603;SDS011;60645;56.968;24.196;2022-10-16T05:05:31;5.63;;;3.85;;
72603;SDS011;60645;56.968;24.196;2022-10-16T05:08:23;5.15;;;3.08;;
72603;SDS011;60645;56.968;24.196;2022-10-16T05:11:17;5.30;;;3.20;;
72603;SDS011;60645;56.968;24.196;2022-10-16T05:13:55;5.40;;;2.90;;
72603;SDS011;60645;56.968;24.196;2022-10-16T05:16:37;6.15;;;3.13;;
72603;SDS011;60645;56.968;24.196;2022-10-16T05:19:18;4.75;;;2.85;;
72603;SDS011;60645;56.968;24.196;2022-10-16T05:22:00;4.97;;;3.05;;
72603;SDS011;60645;56.968;24.196;2022-10-16T05:27:09;5.45;;;3.30;;
72603;SDS011;60645;56.968;24.196;2022-10-16T05:29:48;4.55;;;2.83;;
72603;SDS011;60645;56.968;24.196;2022-10-16T05:32:22;4.97;;;3.15;;
72603;SDS011;60645;56.968;24.196;2022-10-16T05:34:58;5.00;;;3.05;;
72603;SDS011;60645;56.968;24.196;2022-10-16T05:37:36;4.90;;;3.45;;
72603;SDS011;60645;56.968;24.196;2022-10-16T05:40:18;6.20;;;3.17;;
72603;SDS011;60645;56.968;24.196;2022-10-16T05:42:57;4.53;;;3.15;;
72603;SDS011;60645;56.968;24.196;2022-10-16T05:45:38;5.28;;;3.90;;
72603;SDS011;60645;56.968;24.196;2022-10-16T05:48:16;4.85;;;3.17;;
72603;SDS011;60645;56.968;24.196;2022-10-16T05:50:45;4.30;;;2.75;;
72603;SDS011;60645;56.968;24.196;2022-10-16T05:53:34;4.47;;;2.85;;
72603;SDS011;60645;56.968;24.196;2022-10-16T05:56:20;5.22;;;3.20;;
72603;SDS011;60645;56.968;24.196;2022-10-16T05:58:52;4.47;;;3.00;;
72603;SDS011;60645;56.968;24.196;2022-10-16T06:01:28;5.22;;;3.00;;
72603;SDS011;60645;56.968;24.196;2022-10-16T06:04:15;5.97;;;3.10;;
72603;SDS011;60645;56.968;24.196;2022-10-16T06:07:05;4.78;;;3.20;;
72603;SDS011;60645;56.968;24.196;2022-10-16T06:09:39;4.85;;;3.15;;
72603;SDS011;60645;56.968;24.196;2022-10-16T06:12:29;4.13;;;2.72;;
72603;SDS011;60645;56.968;24.196;2022-10-16T06:15:05;5.53;;;2.80;;
72603;SDS011;60645;56.968;24.196;2022-10-16T06:17:34;4.65;;;3.78;;
72603;SDS011;60645;56.968;24.196;2022-10-16T06:20:23;5.50;;;3.40;;
72603;SDS011;60645;56.968;24.196;2022-10-16T06:22:57;5.25;;;3.60;;
72603;SDS011;60645;56.968;24.196;2022-10-16T06:25:52;5.93;;;3.13;;
72603;SDS011;60645;56.968;24.196;2022-10-16T06:28:28;4.60;;;3.15;;
72603;SDS011;60645;56.968;24.196;2022-10-16T06:31:03;6.20;;;4.63;;
72603;SDS011;60645;56.968;24.196;2022-10-16T06:33:36;5.57;;;3.45;;
72603;SDS011;60645;56.968;24.196;2022-10-16T06:36:19;5.45;;;3.65;;
72603;SDS011;60645;56.968;24.196;2022-10-16T06:39:01;5.07;;;3.28;;
72603;SDS011;60645;56.968;24.196;2022-10-16T06:41:39;6.15;;;3.35;;
72603;SDS011;60645;56.968;24.196;2022-10-16T06:44:13;5.18;;;3.30;;
72603;SDS011;60645;56.968;24.196;2022-10-16T06:46:45;5.43;;;3.67;;
72603;SDS011;60645;56.968;24.196;2022-10-16T06:49:25;5.47;;;3.13;;
72603;SDS011;60645;56.968;24.196;2022-10-16T06:51:59;5.10;;;3.50;;
72603;SDS011;60645;56.968;24.196;2022-10-16T06:54:30;5.40;;;3.40;;
72603;SDS011;60645;56.968;24.196;2022-10-16T06:57:17;4.82;;;3.35;;
72603;SDS011;60645;56.968;24.196;2022-10-16T06:59:57;4.57;;;3.30;;
72603;SDS011;60645;56.968;24.196;2022-10-16T07:02:47;5.32;;;3.65;;
72603;SDS011;60645;56.968;24.196;2022-10-16T07:05:24;5.95;;;3.65;;
72603;SDS011;60645;56.968;24.196;2022-10-16T07:08:10;5.85;;;3.20;;
72603;SDS011;60645;56.968;24.196;2022-10-16T07:10:47;5.57;;;4.15;;
72603;SDS011;60645;56.968;24.196;2022-10-16T07:13:23;5.68;;;3.95;;
72603;SDS011;60645;56.968;24.196;2022-10-16T07:16:06;5.88;;;3.45;;
72603;SDS011;60645;56.968;24.196;2022-10-16T07:18:46;5.70;;;3.42;;
72603;SDS011;60645;56.968;24.196;2022-10-16T07:21:38;5.75;;;4.63;;
72603;SDS011;60645;56.968;24.196;2022-10-16T07:24:12;5.28;;;3.58;;
72603;SDS011;60645;56.968;24.196;2022-10-16T07:26:48;6.03;;;4.05;;
72603;SDS011;60645;56.968;24.196;2022-10-16T07:29:22;5.25;;;3.38;;
72603;SDS011;60645;56.968;24.196;2022-10-16T07:32:01;5.78;;;3.15;;
72603;SDS011;60645;56.968;24.196;2022-10-16T07:34:30;4.95;;;3.53;;
72603;SDS011;60645;56.968;24.196;2022-10-16T07:37:15;6.43;;;4.38;;
72603;SDS011;60645;56.968;24.196;2022-10-16T07:39:52;6.43;;;3.50;;
72603;SDS011;60645;56.968;24.196;2022-10-16T07:42:26;6.10;;;3.38;;
72603;SDS011;60645;56.968;24.196;2022-10-16T07:44:59;5.35;;;3.15;;
72603;SDS011;60645;56.968;24.196;2022-10-16T07:50:23;6.82;;;4.05;;
72603;SDS011;60645;56.968;24.196;2022-10-16T07:53:04;5.28;;;3.75;;
72603;SDS011;60645;56.968;24.196;2022-10-16T07:55:42;5.80;;;3.78;;
72603;SDS011;60645;56.968;24.196;2022-10-16T07:58:22;6.32;;;3.60;;
72603;SDS011;60645;56.968;24.196;2022-10-16T08:00:51;5.85;;;3.80;;
72603;SDS011;60645;56.968;24.196;2022-10-16T08:03:55;6.65;;;3.90;;
72603;SDS011;60645;56.968;24.196;2022-10-16T08:06:28;6.75;;;4.35;;
72603;SDS011;60645;56.968;24.196;2022-10-16T08:11:57;5.18;;;3.33;;
72603;SDS011;60645;56.968;24.196;2022-10-16T08:17:14;6.35;;;3.60;;
72603;SDS011;60645;56.968;24.196;2022-10-16T08:20:00;5.57;;;3.70;;
72603;SDS011;60645;56.968;24.196;2022-10-16T08:22:43;5.93;;;3.97;;
72603;SDS011;60645;56.968;24.196;2022-10-16T08:25:37;5.28;;;3.55;;
72603;SDS011;60645;56.968;24.196;2022-10-16T08:28:11;6.38;;;3.90;;
72603;SDS011;60645;56.968;24.196;2022-10-16T08:30:43;5.28;;;3.67;;
72603;SDS011;60645;56.968;24.196;2022-10-16T08:33:28;5.28;;;3.65;;
72603;SDS011;60645;56.968;24.196;2022-10-16T08:36:16;5.97;;;3.88;;
72603;SDS011;60645;56.968;24.196;2022-10-16T08:38:51;6.00;;;3.72;;
72603;SDS011;60645;56.968;24.196;2022-10-16T08:44:52;5.70;;;3.78;;
72603;SDS011;60645;56.968;24.196;2022-10-16T08:50:36;5.63;;;3.33;;
72603;SDS011;60645;56.968;24.196;2022-10-16T08:53:27;5.70;;;3.50;;
72603;SDS011;60645;56.968;24.196;2022-10-16T08:56:37;6.38;;;4.03;;
72603;SDS011;60645;56.968;24.196;2022-10-16T08:59:10;6.70;;;3.75;;
72603;SDS011;60645;56.968;24.196;2022-10-16T09:01:58;6.38;;;4.47;;
72603;SDS011;60645;56.968;24.196;2022-10-16T09:10:49;5.85;;;4.10;;
72603;SDS011;60645;56.968;24.196;2022-10-16T09:13:51;6.20;;;4.95;;
72603;SDS011;60645;56.968;24.196;2022-10-16T09:16:44;5.63;;;3.72;;
72603;SDS011;60645;56.968;24.196;2022-10-16T09:19:46;6.50;;;4.28;;
72603;SDS011;60645;56.968;24.196;2022-10-16T09:25:59;7.53;;;4.40;;
72603;SDS011;60645;56.968;24.196;2022-10-16T09:28:55;7.82;;;4.63;;
72603;SDS011;60645;56.968;24.196;2022-10-16T09:31:35;6.28;;;4.30;;
72603;SDS011;60645;56.968;24.196;2022-10-16T09:34:20;6.15;;;4.45;;
72603;SDS011;60645;56.968;24.196;2022-10-16T09:37:11;6.75;;;4.20;;
72603;SDS011;60645;56.968;24.196;2022-10-16T09:39:45;8.15;;;3.97;;
72603;SDS011;60645;56.968;24.196;2022-10-16T09:42:34;8.50;;;4.55;;
72603;SDS011;60645;56.968;24.196;2022-10-16T09:45:29;6.05;;;4.22;;
72603;SDS011;60645;56.968;24.196;2022-10-16T09:48:10;6.38;;;4.18;;
72603;SDS011;60645;56.968;24.196;2022-10-16T09:51:02;6.78;;;4.30;;
72603;SDS011;60645;56.968;24.196;2022-10-16T09:53:44;7.45;;;4.55;;
72603;SDS011;60645;56.968;24.196;2022-10-16T09:56:23;7.45;;;4.60;;
72603;SDS011;60645;56.968;24.196;2022-10-16T09:59:16;8.32;;;4.47;;
72603;SDS011;60645;56.968;24.196;2022-10-16T10:16:51;6.55;;;4.22;;
72603;SDS011;60645;56.968;24.196;2022-10-16T10:19:26;7.35;;;4.75;;
72603;SDS011;60645;56.968;24.196;2022-10-16T10:25:21;7.13;;;4.85;;
72603;SDS011;60645;56.968;24.196;2022-10-16T10:31:10;8.45;;;5.57;;
72603;SDS011;60645;56.968;24.196;2022-10-16T10:44:11;7.93;;;4.85;;
72603;SDS011;60645;56.968;24.196;2022-10-16T10:46:57;7.93;;;5.00;;
72603;SDS011;60645;56.968;24.196;2022-10-16T10:55:59;8.02;;;5.13;;
72603;SDS011;60645;56.968;24.196;2022-10-16T10:58:55;8.20;;;4.72;;
72603;SDS011;60645;56.968;24.196;2022-10-16T11:10:42;8.63;;;4.78;;
72603;SDS011;60645;56.968;24.196;2022-10-16T11:13:36;10.07;;;5.70;;
72603;SDS011;60645;56.968;24.196;2022-10-16T11:19:11;7.18;;;4.82;;
72603;SDS011;60645;56.968;24.196;2022-10-16T11:22:05;8.27;;;6.25;;
72603;SDS011;60645;56.968;24.196;2022-10-16T11:25:20;7.38;;;5.15;;
72603;SDS011;60645;56.968;24.196;2022-10-16T11:34:12;8.10;;;4.95;;
72603;SDS011;60645;56.968;24.196;2022-10-16T11:40:18;7.40;;;4.47;;
72603;SDS011;60645;56.968;24.196;2022-10-16T11:43:15;7.20;;;4.53;;
72603;SDS011;60645;56.968;24.196;2022-10-16T11:46:10;7.78;;;4.93;;
72603;SDS011;60645;56.968;24.196;2022-10-16T11:55:22;6.78;;;4.80;;
72603;SDS011;60645;56.968;24.196;2022-10-16T11:58:31;7.50;;;4.88;;
72603;SDS011;60645;56.968;24.196;2022-10-16T12:04:22;6.43;;;4.50;;
72603;SDS011;60645;56.968;24.196;2022-10-16T12:07:14;7.47;;;4.85;;
72603;SDS011;60645;56.968;24.196;2022-10-16T12:09:51;7.38;;;5.07;;
72603;SDS011;60645;56.968;24.196;2022-10-16T12:12:39;7.55;;;4.93;;
72603;SDS011;60645;56.968;24.196;2022-10-16T12:18:25;7.57;;;5.45;;
72603;SDS011;60645;56.968;24.196;2022-10-16T12:21:07;8.10;;;5.30;;
72603;SDS011;60645;56.968;24.196;2022-10-16T12:23:56;7.18;;;4.90;;
72603;SDS011;60645;56.968;24.196;2022-10-16T12:32:03;6.90;;;4.82;;
72603;SDS011;60645;56.968;24.196;2022-10-16T12:38:06;8.30;;;4.85;;
72603;SDS011;60645;56.968;24.196;2022-10-16T12:41:00;7.63;;;4.95;;
72603;SDS011;60645;56.968;24.196;2022-10-16T12:43:58;8.38;;;6.10;;
72603;SDS011;60645;56.968;24.196;2022-10-16T12:46:37;7.68;;;5.05;;
72603;SDS011;60645;56.968;24.196;2022-10-16T12:51:55;7.28;;;4.85;;
72603;SDS011;60645;56.968;24.196;2022-10-16T12:54:48;7.88;;;5.20;;
72603;SDS011;60645;56.968;24.196;2022-10-16T13:07:07;7.88;;;4.80;;
72603;SDS011;60645;56.968;24.196;2022-10-16T13:22:24;8.73;;;5.03;;
72603;SDS011;60645;56.968;24.196;2022-10-16T13:28:03;8.55;;;6.50;;
72603;SDS011;60645;56.968;24.196;2022-10-16T13:30:51;7.05;;;4.78;;
72603;SDS011;60645;56.968;24.196;2022-10-16T13:33:49;8.10;;;4.88;;
72603;SDS011;60645;56.968;24.196;2022-10-16T13:36:42;7.03;;;4.30;;
72603;SDS011;60645;56.968;24.196;2022-10-16T13:39:28;8.30;;;5.15;;
72603;SDS011;60645;56.968;24.196;2022-10-16T13:44:47;7.78;;;4.70;;
72603;SDS011;60645;56.968;24.196;2022-10-16T13:47:35;8.60;;;5.20;;
72603;SDS011;60645;56.968;24.196;2022-10-16T13:50:18;8.10;;;5.32;;
72603;SDS011;60645;56.968;24.196;2022-10-16T13:52:50;7.88;;;5.10;;
72603;SDS011;60645;56.968;24.196;2022-10-16T13:55:46;7.15;;;4.38;;
72603;SDS011;60645;56.968;24.196;2022-10-16T13:58:26;7.40;;;4.93;;
72603;SDS011;60645;56.968;24.196;2022-10-16T14:01:00;7.55;;;4.55;;
72603;SDS011;60645;56.968;24.196;2022-10-16T14:03:33;7.60;;;4.88;;
72603;SDS011;60645;56.968;24.196;2022-10-16T14:06:19;7.53;;;5.10;;
72603;SDS011;60645;56.968;24.196;2022-10-16T14:11:49;8.13;;;5.50;;
72603;SDS011;60645;56.968;24.196;2022-10-16T14:14:41;9.02;;;5.05;;
72603;SDS011;60645;56.968;24.196;2022-10-16T14:17:20;8.48;;;5.20;;
72603;SDS011;60645;56.968;24.196;2022-10-16T14:20:04;7.32;;;4.97;;
72603;SDS011;60645;56.968;24.196;2022-10-16T14:22:45;7.93;;;4.82;;
72603;SDS011;60645;56.968;24.196;2022-10-16T14:28:16;7.90;;;5.05;;
72603;SDS011;60645;56.968;24.196;2022-10-16T14:30:57;7.47;;;4.85;;
72603;SDS011;60645;56.968;24.196;2022-10-16T14:33:34;8.32;;;5.05;;
72603;SDS011;60645;56.968;24.196;2022-10-16T14:36:17;7.95;;;4.97;;
72603;SDS011;60645;56.968;24.196;2022-10-16T14:41:41;7.72;;;4.57;;
72603;SDS011;60645;56.968;24.196;2022-10-16T14:44:18;7.85;;;5.45;;
72603;SDS011;60645;56.968;24.196;2022-10-16T14:50:07;7.97;;;4.80;;
72603;SDS011;60645;56.968;24.196;2022-10-16T14:52:42;6.05;;;4.38;;
72603;SDS011;60645;56.968;24.196;2022-10-16T14:55:16;8.55;;;5.30;;
72603;SDS011;60645;56.968;24.196;2022-10-16T14:57:50;7.63;;;4.65;;
72603;SDS011;60645;56.968;24.196;2022-10-16T15:00:30;7.80;;;5.13;;
72603;SDS011;60645;56.968;24.196;2022-10-16T15:03:15;7.68;;;5.13;;
72603;SDS011;60645;56.968;24.196;2022-10-16T15:05:58;7.93;;;4.72;;
72603;SDS011;60645;56.968;24.196;2022-10-16T15:08:31;6.95;;;4.85;;
72603;SDS011;60645;56.968;24.196;2022-10-16T15:11:14;7.22;;;4.22;;
72603;SDS011;60645;56.968;24.196;2022-10-16T15:13:56;7.10;;;5.07;;
72603;SDS011;60645;56.968;24.196;2022-10-16T15:16:33;7.22;;;4.68;;
72603;SDS011;60645;56.968;24.196;2022-10-16T15:19:01;6.20;;;4.32;;
72603;SDS011;60645;56.968;24.196;2022-10-16T15:21:47;7.97;;;4.85;;
72603;SDS011;60645;56.968;24.196;2022-10-16T15:24:21;7.97;;;4.70;;
72603;SDS011;60645;56.968;24.196;2022-10-16T15:27:08;7.38;;;4.30;;
72603;SDS011;60645;56.968;24.196;2022-10-16T15:29:54;7.45;;;4.72;;
72603;SDS011;60645;56.968;24.196;2022-10-16T15:32:42;7.75;;;4.88;;
72603;SDS011;60645;56.968;24.196;2022-10-16T15:35:19;6.85;;;4.20;;
72603;SDS011;60645;56.968;24.196;2022-10-16T15:38:06;6.68;;;4.65;;
72603;SDS011;60645;56.968;24.196;2022-10-16T15:40:51;7.90;;;4.97;;
72603;SDS011;60645;56.968;24.196;2022-10-16T15:43:23;7.30;;;5.00;;
72603;SDS011;60645;56.968;24.196;2022-10-16T15:49:00;6.88;;;4.63;;
72603;SDS011;60645;56.968;24.196;2022-10-16T15:51:37;7.03;;;4.57;;
72603;SDS011;60645;56.968;24.196;2022-10-16T15:54:12;6.65;;;4.85;;
72603;SDS011;60645;56.968;24.196;2022-10-16T15:56:43;7.95;;;5.50;;
72603;SDS011;60645;56.968;24.196;2022-10-16T15:59:22;7.40;;;4.28;;
72603;SDS011;60645;56.968;24.196;2022-10-16T16:01:54;8.02;;;5.38;;
72603;SDS011;60645;56.968;24.196;2022-10-16T16:04:30;7.20;;;4.53;;
72603;SDS011;60645;56.968;24.196;2022-10-16T16:07:10;6.03;;;4.45;;
72603;SDS011;60645;56.968;24.196;2022-10-16T16:09:42;7.25;;;4.57;;
72603;SDS011;60645;56.968;24.196;2022-10-16T16:12:16;7.45;;;4.45;;
72603;SDS011;60645;56.968;24.196;2022-10-16T16:17:15;6.70;;;4.63;;
72603;SDS011;60645;56.968;24.196;2022-10-16T16:19:51;6.53;;;4.55;;
72603;SDS011;60645;56.968;24.196;2022-10-16T16:22:27;5.63;;;3.67;;
72603;SDS011;60645;56.968;24.196;2022-10-16T16:25:06;6.13;;;4.68;;
72603;SDS011;60645;56.968;24.196;2022-10-16T16:27:42;6.65;;;4.28;;
72603;SDS011;60645;56.968;24.196;2022-10-16T16:30:27;7.32;;;5.50;;
72603;SDS011;60645;56.968;24.196;2022-10-16T16:33:04;6.55;;;4.10;;
72603;SDS011;60645;56.968;24.196;2022-10-16T16:35:39;6.57;;;4.13;;
72603;SDS011;60645;56.968;24.196;2022-10-16T16:44:03;7.43;;;4.05;;
72603;SDS011;60645;56.968;24.196;2022-10-16T16:46:51;7.03;;;4.18;;
72603;SDS011;60645;56.968;24.196;2022-10-16T16:49:24;5.63;;;3.88;;
72603;SDS011;60645;56.968;24.196;2022-10-16T16:52:13;7.53;;;4.03;;
72603;SDS011;60645;56.968;24.196;2022-10-16T16:55:06;5.82;;;3.67;;
72603;SDS011;60645;56.968;24.196;2022-10-16T16:57:35;5.47;;;4.00;;
72603;SDS011;60645;56.968;24.196;2022-10-16T17:00:19;6.40;;;3.90;;
72603;SDS011;60645;56.968;24.196;2022-10-16T17:03:01;5.60;;;3.88;;
72603;SDS011;60645;56.968;24.196;2022-10-16T17:05:32;6.40;;;3.80;;
72603;SDS011;60645;56.968;24.196;2022-10-16T17:08:13;6.25;;;4.10;;
72603;SDS011;60645;56.968;24.196;2022-10-16T17:10:46;6.32;;;4.32;;
72603;SDS011;60645;56.968;24.196;2022-10-16T17:13:41;6.70;;;3.97;;
72603;SDS011;60645;56.968;24.196;2022-10-16T17:16:43;5.97;;;3.80;;
72603;SDS011;60645;56.968;24.196;2022-10-16T17:19:34;5.90;;;3.88;;
72603;SDS011;60645;56.968;24.196;2022-10-16T17:22:31;6.10;;;4.00;;
72603;SDS011;60645;56.968;24.196;2022-10-16T17:25:46;6.18;;;4.13;;
72603;SDS011;60645;56.968;24.196;2022-10-16T17:28:32;5.78;;;3.97;;
72603;SDS011;60645;56.968;24.196;2022-10-16T17:31:22;5.55;;;3.88;;
72603;SDS011;60645;56.968;24.196;2022-10-16T17:34:08;4.60;;;3.22;;
72603;SDS011;60645;56.968;24.196;2022-10-16T17:36:44;5.57;;;3.47;;
72603;SDS011;60645;56.968;24.196;2022-10-16T17:39:29;6.85;;;4.22;;
72603;SDS011;60645;56.968;24.196;2022-10-16T17:42:24;4.88;;;3.58;;
72603;SDS011;60645;56.968;24.196;2022-10-16T17:45:20;5.07;;;3.30;;
72603;SDS011;60645;56.968;24.196;2022-10-16T17:48:10;5.68;;;3.10;;
72603;SDS011;60645;56.968;24.196;2022-10-16T17:50:56;4.80;;;3.55;;
72603;SDS011;60645;56.968;24.196;2022-10-16T17:54:05;4.75;;;3.20;;
72603;SDS011;60645;56.968;24.196;2022-10-16T17:57:15;6.40;;;4.03;;
72603;SDS011;60645;56.968;24.196;2022-10-16T18:00:03;5.85;;;3.53;;
72603;SDS011;60645;56.968;24.196;2022-10-16T18:02:31;4.15;;;3.05;;
72603;SDS011;60645;56.968;24.196;2022-10-16T18:05:09;4.55;;;3.40;;
72603;SDS011;60645;56.968;24.196;2022-10-16T18:08:10;5.65;;;3.75;;
72603;SDS011;60645;56.968;24.196;2022-10-16T18:10:56;4.68;;;3.50;;
72603;SDS011;60645;56.968;24.196;2022-10-16T18:13:31;5.25;;;3.10;;
72603;SDS011;60645;56.968;24.196;2022-10-16T18:16:17;5.25;;;3.25;;
72603;SDS011;60645;56.968;24.196;2022-10-16T18:19:19;5.03;;;3.58;;
72603;SDS011;60645;56.968;24.196;2022-10-16T18:22:14;5.57;;;3.78;;
72603;SDS011;60645;56.968;24.196;2022-10-16T18:25:26;4.78;;;3.20;;
72603;SDS011;60645;56.968;24.196;2022-10-16T18:28:11;4.60;;;3.25;;
72603;SDS011;60645;56.968;24.196;2022-10-16T18:31:14;5.18;;;2.92;;
72603;SDS011;60645;56.968;24.196;2022-10-16T18:34:13;4.90;;;3.15;;
72603;SDS011;60645;56.968;24.196;2022-10-16T18:37:19;4.38;;;2.88;;
72603;SDS011;60645;56.968;24.196;2022-10-16T18:40:40;5.13;;;3.55;;
72603;SDS011;60645;56.968;24.196;2022-10-16T18:43:18;5.10;;;3.25;;
72603;SDS011;60645;56.968;24.196;2022-10-16T18:46:12;5.10;;;3.42;;
72603;SDS011;60645;56.968;24.196;2022-10-16T18:49:28;4.93;;;3.17;;
72603;SDS011;60645;56.968;24.196;2022-10-16T18:52:24;4.88;;;3.38;;
72603;SDS011;60645;56.968;24.196;2022-10-16T18:55:20;4.75;;;2.83;;
72603;SDS011;60645;56.968;24.196;2022-10-16T18:58:14;5.25;;;3.53;;
72603;SDS011;60645;56.968;24.196;2022-10-16T19:01:12;5.28;;;3.00;;
72603;SDS011;60645;56.968;24.196;2022-10-16T19:04:12;5.88;;;3.70;;
72603;SDS011;60645;56.968;24.196;2022-10-16T19:07:14;4.25;;;2.90;;